createdAt,value
2019-05-12T00:00:09.082Z,79.56
2019-05-12T00:02:39.653Z,80.86
2019-05-12T00:05:08.801Z,81.53
2019-05-12T00:07:38.188Z,81.50
2019-05-12T00:10:08.637Z,81.05
2019-05-12T00:12:38.478Z,80.95
2019-05-12T00:15:08.359Z,80.78
2019-05-12T00:17:38.817Z,80.62
2019-05-12T00:20:08.526Z,81.12
2019-05-12T00:22:41.297Z,79.84
2019-05-12T00:25:09.830Z,80.26
2019-05-12T00:27:38.861Z,79.77
2019-05-12T00:30:10.093Z,80.45
2019-05-12T00:32:38.716Z,79.64
2019-05-12T00:35:08.018Z,80.67
2019-05-12T00:37:38.125Z,81.53
2019-05-12T00:40:08.842Z,81.19
2019-05-12T00:42:38.058Z,82.09
2019-05-12T00:45:08.140Z,82.30
2019-05-12T00:47:38.894Z,82.51
2019-05-12T00:50:08.053Z,83.02
2019-05-12T00:52:38.509Z,82.88
2019-05-12T00:55:08.114Z,82.89
2019-05-12T00:57:38.271Z,81.95
2019-05-12T01:00:10.401Z,81.35
2019-05-12T01:02:38.920Z,81.51
2019-05-12T01:05:08.741Z,81.73
2019-05-12T01:07:38.239Z,81.91
2019-05-12T01:10:08.862Z,82.13
2019-05-12T01:12:38.149Z,82.49
2019-05-12T01:15:08.355Z,82.33
2019-05-12T01:17:40.133Z,81.73
2019-05-12T01:20:08.824Z,82.36
2019-05-12T01:22:38.286Z,82.44
2019-05-12T01:25:08.617Z,82.34
2019-05-12T01:27:38.197Z,82.94
2019-05-12T01:30:08.777Z,83.17
2019-05-12T01:32:39.034Z,82.85
2019-05-12T01:35:09.734Z,82.78
2019-05-12T01:37:38.555Z,82.95
2019-05-12T01:40:08.848Z,82.71
2019-05-12T01:42:38.339Z,82.56
2019-05-12T01:45:09.248Z,82.02
2019-05-12T01:47:38.368Z,81.74
2019-05-12T01:50:09.041Z,81.78
2019-05-12T01:52:38.683Z,81.39
2019-05-12T01:55:08.315Z,81.71
2019-05-12T01:57:38.674Z,82.06
2019-05-12T02:00:12.373Z,81.96
2019-05-12T02:02:40.921Z,82.86
2019-05-12T02:05:10.274Z,82.65
2019-05-12T02:07:48.005Z,82.38
2019-05-12T02:10:17.992Z,82.42
2019-05-12T02:12:48.890Z,82.32
2019-05-12T02:15:18.450Z,82.17
2019-05-12T02:17:48.129Z,82.27
2019-05-12T02:20:18.071Z,82.42
2019-05-12T02:22:47.717Z,80.78
2019-05-12T02:25:18.452Z,80.76
2019-05-12T02:27:47.653Z,80.98
2019-05-12T02:30:19.226Z,81.49
2019-05-12T02:32:52.375Z,81.40
2019-05-12T02:35:17.242Z,80.67
2019-05-12T02:37:45.746Z,80.91
2019-05-12T02:40:15.193Z,81.22
2019-05-12T02:42:46.252Z,80.79
2019-05-12T02:45:15.402Z,79.05
2019-05-12T02:47:45.613Z,79.21
2019-05-12T02:50:17.502Z,79.69
2019-05-12T02:52:46.705Z,79.31
2019-05-12T02:55:15.298Z,78.51
2019-05-12T02:57:45.251Z,78.13
2019-05-12T03:00:16.009Z,77.36
2019-05-12T03:02:45.857Z,77.58
2019-05-12T03:05:14.972Z,78.28
2019-05-12T03:07:44.919Z,78.00
2019-05-12T03:10:14.701Z,75.95
2019-05-12T03:12:44.929Z,74.22
2019-05-12T03:15:15.182Z,74.25
2019-05-12T03:17:44.378Z,74.42
2019-05-12T03:20:15.408Z,74.09
2019-05-12T03:22:44.804Z,72.84
2019-05-12T03:25:20.805Z,74.14
2019-05-12T03:27:44.531Z,74.19
2019-05-12T03:30:18.972Z,72.22
2019-05-12T03:32:47.191Z,71.80
2019-05-12T03:35:17.756Z,71.64
2019-05-12T03:37:45.219Z,71.78
2019-05-12T03:40:14.542Z,71.72
2019-05-12T03:42:44.453Z,73.28
2019-05-12T03:45:15.014Z,73.13
2019-05-12T03:47:45.518Z,73.69
2019-05-12T03:50:14.770Z,74.73
2019-05-12T03:52:44.939Z,74.63
2019-05-12T03:55:30.962Z,75.78
2019-05-12T03:57:44.992Z,75.76
2019-05-12T04:00:15.967Z,76.49
2019-05-12T04:02:45.351Z,76.74
2019-05-12T04:05:15.429Z,76.53
2019-05-12T04:07:45.154Z,76.51
2019-05-12T04:10:15.542Z,77.14
2019-05-12T04:12:45.035Z,77.09
2019-05-12T04:15:15.203Z,77.55
2019-05-12T04:17:45.555Z,77.35
2019-05-12T04:20:15.318Z,77.66
2019-05-12T04:22:44.791Z,77.92
2019-05-12T04:25:14.614Z,77.97
2019-05-12T04:27:45.073Z,77.98
2019-05-12T04:30:14.633Z,78.28
2019-05-12T04:32:45.250Z,78.40
2019-05-12T04:35:14.962Z,77.91
2019-05-12T04:37:44.927Z,76.84
2019-05-12T04:40:14.790Z,76.74
2019-05-12T04:42:45.251Z,76.47
2019-05-12T04:45:15.526Z,76.62
2019-05-12T04:47:45.035Z,77.01
2019-05-12T04:50:15.629Z,77.43
2019-05-12T04:52:44.776Z,77.29
2019-05-12T04:55:15.085Z,75.69
2019-05-12T04:57:45.117Z,75.99
2019-05-12T05:00:15.708Z,75.91
2019-05-12T05:02:45.659Z,75.25
2019-05-12T05:05:14.745Z,74.92
2019-05-12T05:07:44.763Z,75.12
2019-05-12T05:10:14.603Z,74.99
2019-05-12T05:12:44.951Z,74.65
2019-05-12T05:15:14.647Z,75.06
2019-05-12T05:17:44.137Z,76.02
2019-05-12T05:20:13.579Z,75.21
2019-05-12T05:22:44.042Z,76.14
2019-05-12T05:25:14.424Z,74.97
2019-05-12T05:27:44.426Z,71.85
2019-05-12T05:30:13.913Z,69.79
2019-05-12T05:32:44.461Z,70.14
2019-05-12T05:35:13.752Z,69.48
2019-05-12T05:37:44.280Z,69.54
2019-05-12T05:40:14.176Z,69.91
2019-05-12T05:42:43.989Z,70.00
2019-05-12T05:45:21.419Z,69.85
2019-05-12T05:47:44.331Z,69.17
2019-05-12T05:50:13.629Z,69.56
2019-05-12T05:52:43.796Z,71.51
2019-05-12T05:55:19.942Z,71.20
2019-05-12T05:57:44.372Z,71.85
2019-05-12T06:00:22.775Z,72.15
2019-05-12T06:02:44.277Z,72.05
2019-05-12T06:05:14.467Z,72.97
2019-05-12T06:07:44.323Z,73.49
2019-05-12T06:10:14.472Z,74.97
2019-05-12T06:12:48.576Z,75.42
2019-05-12T06:15:13.689Z,75.91
2019-05-12T06:17:43.875Z,75.64
2019-05-12T06:20:13.479Z,75.94
2019-05-12T06:22:43.792Z,76.44
2019-05-12T06:25:16.179Z,76.64
2019-05-12T06:27:44.332Z,74.85
2019-05-12T06:30:14.744Z,74.70
2019-05-12T06:32:50.054Z,74.54
2019-05-12T06:35:15.102Z,74.05
2019-05-12T06:37:44.376Z,73.50
2019-05-12T06:40:14.071Z,73.08
2019-05-12T06:42:43.561Z,73.59
2019-05-12T06:45:14.110Z,73.06
2019-05-12T06:47:45.286Z,73.18
2019-05-12T06:50:14.577Z,73.14
2019-05-12T06:52:46.898Z,73.09
2019-05-12T06:55:14.694Z,72.57
2019-05-12T06:57:45.910Z,72.81
2019-05-12T07:00:14.667Z,73.61
2019-05-12T07:02:51.645Z,72.64
2019-05-12T07:05:14.585Z,72.35
2019-05-12T07:07:46.134Z,72.58
2019-05-12T07:10:35.079Z,72.87
2019-05-12T07:12:58.247Z,74.40
2019-05-12T07:15:14.429Z,73.80
2019-05-12T07:17:49.838Z,73.22
2019-05-12T07:20:17.687Z,73.75
2019-05-12T07:22:48.635Z,73.51
2019-05-12T07:25:16.478Z,73.45
2019-05-12T07:27:53.647Z,73.63
2019-05-12T07:30:16.712Z,73.93
2019-05-12T07:32:45.476Z,74.57
2019-05-12T07:35:14.767Z,74.92
2019-05-12T07:37:45.558Z,74.65
2019-05-12T07:40:14.114Z,72.84
2019-05-12T07:42:43.847Z,71.26
2019-05-12T07:45:20.692Z,70.95
2019-05-12T07:47:44.798Z,71.34
2019-05-12T07:50:16.142Z,70.89
2019-05-12T07:52:44.189Z,71.47
2019-05-12T07:55:14.780Z,70.74
2019-05-12T07:57:52.957Z,70.42
2019-05-12T08:00:21.130Z,70.03
2019-05-12T08:02:44.536Z,70.19
2019-05-12T08:05:19.442Z,68.74
2019-05-12T08:07:44.583Z,68.69
2019-05-12T08:10:19.934Z,67.79
2019-05-12T08:12:44.494Z,67.25
2019-05-12T08:15:14.051Z,66.75
2019-05-12T08:17:44.124Z,66.07
2019-05-12T08:20:13.558Z,66.38
2019-05-12T08:22:43.813Z,65.74
2019-05-12T08:25:13.473Z,65.32
2019-05-12T08:27:45.122Z,66.32
2019-05-12T08:30:13.788Z,65.23
2019-05-12T08:32:44.308Z,64.53
2019-05-12T08:35:13.922Z,64.60
2019-05-12T08:37:44.104Z,65.75
2019-05-12T08:40:15.396Z,64.61
2019-05-12T08:42:43.809Z,63.78
2019-05-12T08:45:15.292Z,62.24
2019-05-12T08:47:44.082Z,61.58
2019-05-12T08:50:13.654Z,61.37
2019-05-12T08:52:44.191Z,60.80
2019-05-12T08:55:16.630Z,60.02
2019-05-12T08:57:48.969Z,58.33
2019-05-12T09:00:13.569Z,60.09
2019-05-12T09:02:46.101Z,59.81
2019-05-12T09:05:14.293Z,58.87
2019-05-12T09:07:43.656Z,59.12
2019-05-12T09:10:14.323Z,59.66
2019-05-12T09:12:44.178Z,58.29
2019-05-12T09:15:13.585Z,56.78
2019-05-12T09:17:49.074Z,56.21
2019-05-12T09:20:13.704Z,56.57
2019-05-12T09:22:43.226Z,54.80
2019-05-12T09:25:14.139Z,55.51
2019-05-12T09:27:45.669Z,55.56
2019-05-12T09:30:14.164Z,55.58
2019-05-12T09:32:45.441Z,56.42
2019-05-12T09:35:14.391Z,57.63
2019-05-12T09:37:44.094Z,57.67
2019-05-12T09:40:14.955Z,56.45
2019-05-12T09:42:44.053Z,55.51
2019-05-12T09:45:13.788Z,55.89
2019-05-12T09:47:43.601Z,56.66
2019-05-12T09:50:18.268Z,56.65
2019-05-12T09:52:44.072Z,54.18
2019-05-12T09:55:14.888Z,54.57
2019-05-12T09:57:45.119Z,54.84
2019-05-12T10:00:13.939Z,53.59
2019-05-12T10:02:43.671Z,54.10
2019-05-12T10:05:14.453Z,52.51
2019-05-12T10:07:44.555Z,52.59
2019-05-12T10:10:14.292Z,52.88
2019-05-12T10:12:46.251Z,54.10
2019-05-12T10:15:18.747Z,51.79
2019-05-12T10:17:44.127Z,51.07
2019-05-12T10:20:13.702Z,50.19
2019-05-12T10:22:43.726Z,49.74
2019-05-12T10:25:14.463Z,48.82
2019-05-12T10:27:44.332Z,49.08
2019-05-12T10:30:17.047Z,50.01
2019-05-12T10:32:43.817Z,49.03
2019-05-12T10:35:20.823Z,48.71
2019-05-12T10:37:47.164Z,47.41
2019-05-12T10:40:15.626Z,47.50
2019-05-12T10:42:46.220Z,47.98
2019-05-12T10:45:18.952Z,47.35
2019-05-12T10:47:44.679Z,47.64
2019-05-12T10:50:14.354Z,48.00
2019-05-12T10:52:44.001Z,47.20
2019-05-12T10:55:13.426Z,48.01
2019-05-12T10:57:43.918Z,48.83
2019-05-12T11:00:19.674Z,48.20
2019-05-12T11:02:45.073Z,47.85
2019-05-12T11:05:21.107Z,48.71
2019-05-12T11:07:43.911Z,48.57
2019-05-12T11:10:19.161Z,49.43
2019-05-12T11:12:44.147Z,49.86
2019-05-12T11:15:13.593Z,50.60
2019-05-12T11:17:53.388Z,50.46
2019-05-12T11:20:25.167Z,51.31
2019-05-12T11:22:54.314Z,50.85
2019-05-12T11:25:24.620Z,50.73
2019-05-12T11:27:54.910Z,51.32
2019-05-12T11:30:23.868Z,49.37
2019-05-12T11:32:54.120Z,49.75
2019-05-12T11:35:23.680Z,50.08
2019-05-12T11:37:53.888Z,49.46
2019-05-12T11:40:23.934Z,48.65
2019-05-12T11:42:59.096Z,47.83
2019-05-12T11:45:24.219Z,48.67
2019-05-12T11:47:59.164Z,47.44
2019-05-12T11:50:23.115Z,46.97
2019-05-12T11:52:52.310Z,48.30
2019-05-12T11:55:21.310Z,45.75
2019-05-12T11:57:51.113Z,46.09
2019-05-12T12:00:21.360Z,45.40
2019-05-12T12:02:49.840Z,44.94
2019-05-12T12:05:18.409Z,44.49
2019-05-12T12:07:51.350Z,44.03
2019-05-12T12:10:17.160Z,45.04
2019-05-12T12:12:49.262Z,42.54
2019-05-12T12:15:20.377Z,42.85
2019-05-12T12:17:46.577Z,43.56
2019-05-12T12:20:22.561Z,43.60
2019-05-12T12:22:48.425Z,42.49
2019-05-12T12:25:23.420Z,43.93
2019-05-12T12:27:53.760Z,44.15
2019-05-12T12:30:23.606Z,44.04
2019-05-12T12:32:58.769Z,46.68
2019-05-12T12:35:23.378Z,45.76
2019-05-12T12:37:53.925Z,43.67
2019-05-12T12:40:22.205Z,44.98
2019-05-12T12:42:50.705Z,45.14
2019-05-12T12:45:20.967Z,46.08
2019-05-12T12:47:49.467Z,45.08
2019-05-12T12:50:20.220Z,43.20
2019-05-12T12:52:48.948Z,42.78
2019-05-12T12:55:17.587Z,44.78
2019-05-12T12:57:50.574Z,43.68
2019-05-12T13:00:31.774Z,44.97
2019-05-12T13:02:49.365Z,45.80
2019-05-12T13:05:17.984Z,45.24
2019-05-12T13:07:46.444Z,45.33
2019-05-12T13:10:15.111Z,45.56
2019-05-12T13:12:43.913Z,45.75
2019-05-12T13:15:14.454Z,46.06
2019-05-12T13:17:44.750Z,46.08
2019-05-12T13:20:13.856Z,46.87
2019-05-12T13:22:44.393Z,47.03
2019-05-12T13:25:14.301Z,48.59
2019-05-12T13:27:42.884Z,48.35
2019-05-12T13:30:19.747Z,47.68
2019-05-12T13:32:44.168Z,48.76
2019-05-12T13:35:16.642Z,48.46
2019-05-12T13:37:43.466Z,49.82
2019-05-12T13:40:12.187Z,49.67
2019-05-12T13:42:40.753Z,48.21
2019-05-12T13:45:13.175Z,48.24
2019-05-12T13:47:40.274Z,49.08
2019-05-12T13:50:13.436Z,49.07
2019-05-12T13:52:39.799Z,50.94
2019-05-12T13:55:08.339Z,51.25
2019-05-12T13:57:36.836Z,46.06
2019-05-12T14:00:10.904Z,46.66
2019-05-12T14:02:38.943Z,45.75
2019-05-12T14:05:11.406Z,46.21
2019-05-12T14:07:43.525Z,45.21
2019-05-12T14:10:13.862Z,43.54
2019-05-12T14:12:43.982Z,42.74
2019-05-12T14:15:14.234Z,43.62
2019-05-12T14:17:43.504Z,43.46
2019-05-12T14:20:15.717Z,44.78
2019-05-12T14:22:44.810Z,44.58
2019-05-12T14:25:15.100Z,45.01
2019-05-12T14:27:44.325Z,44.60
2019-05-12T14:30:14.535Z,46.03
2019-05-12T14:32:44.010Z,46.54
2019-05-12T14:35:12.899Z,46.79
2019-05-12T14:37:45.834Z,47.91
2019-05-12T14:40:13.434Z,49.70
2019-05-12T14:42:44.169Z,50.48
2019-05-12T14:45:13.770Z,50.20
2019-05-12T14:47:43.734Z,49.79
2019-05-12T14:50:14.061Z,49.84
2019-05-12T14:52:43.946Z,50.52
2019-05-12T14:55:13.880Z,52.06
2019-05-12T14:57:42.555Z,52.77
2019-05-12T15:00:17.383Z,53.60
2019-05-12T15:02:43.725Z,53.96
2019-05-12T15:05:14.038Z,54.90
2019-05-12T15:07:51.280Z,53.71
2019-05-12T15:10:14.315Z,53.24
2019-05-12T15:12:44.212Z,54.16
2019-05-12T15:15:15.643Z,54.19
2019-05-12T15:17:44.436Z,53.45
2019-05-12T15:20:13.890Z,53.26
2019-05-12T15:22:51.259Z,52.95
2019-05-12T15:25:14.492Z,53.58
2019-05-12T15:27:46.122Z,53.05
2019-05-12T15:30:22.844Z,52.82
2019-05-12T15:32:44.067Z,52.87
2019-05-12T15:35:13.864Z,52.45
2019-05-12T15:37:43.644Z,52.07
2019-05-12T15:40:14.546Z,52.51
2019-05-12T15:42:45.142Z,51.95
2019-05-12T15:45:16.653Z,51.74
2019-05-12T15:47:44.589Z,51.91
2019-05-12T15:50:14.622Z,48.68
2019-05-12T15:52:45.618Z,46.12
2019-05-12T15:55:13.899Z,42.87
2019-05-12T15:57:44.037Z,45.80
2019-05-12T16:00:17.016Z,43.87
2019-05-12T16:02:44.604Z,44.41
2019-05-12T16:05:14.522Z,45.83
2019-05-12T16:07:44.197Z,43.82
2019-05-12T16:10:14.442Z,43.99
2019-05-12T16:12:43.726Z,42.06
2019-05-12T16:15:17.250Z,43.31
2019-05-12T16:17:44.121Z,43.11
2019-05-12T16:20:14.262Z,43.33
2019-05-12T16:22:45.052Z,43.37
2019-05-12T16:25:15.294Z,44.20
2019-05-12T16:27:44.400Z,44.67
2019-05-12T16:30:14.018Z,47.18
2019-05-12T16:32:47.597Z,47.99
2019-05-12T16:35:14.523Z,46.42
2019-05-12T16:37:44.243Z,46.43
2019-05-12T16:40:13.805Z,46.41
2019-05-12T16:42:48.139Z,45.14
2019-05-12T16:45:14.341Z,44.53
2019-05-12T16:47:44.664Z,44.48
2019-05-12T16:50:15.926Z,43.93
2019-05-12T16:52:45.338Z,44.06
2019-05-12T16:55:14.450Z,43.76
2019-05-12T16:57:51.469Z,44.12
2019-05-12T17:00:15.415Z,44.72
2019-05-12T17:02:51.966Z,44.94
2019-05-12T17:05:20.243Z,44.75
2019-05-12T17:07:44.661Z,43.93
2019-05-12T17:10:16.660Z,44.31
2019-05-12T17:12:43.943Z,44.08
2019-05-12T17:15:15.035Z,43.54
2019-05-12T17:17:44.689Z,43.98
2019-05-12T17:20:14.207Z,44.28
2019-05-12T17:22:45.678Z,44.45
2019-05-12T17:25:15.499Z,44.49
2019-05-12T17:27:44.778Z,45.10
2019-05-12T17:30:14.016Z,45.63
2019-05-12T17:32:57.194Z,45.46
2019-05-12T17:35:14.657Z,46.30
2019-05-12T17:37:43.856Z,46.54
2019-05-12T17:40:15.453Z,46.90
2019-05-12T17:42:44.107Z,48.32
2019-05-12T17:45:15.766Z,50.74
2019-05-12T17:47:44.435Z,51.85
2019-05-12T17:50:13.866Z,51.50
2019-05-12T17:52:44.856Z,49.86
2019-05-12T17:55:14.699Z,51.27
2019-05-12T17:57:43.989Z,51.98
2019-05-12T18:00:14.493Z,50.97
2019-05-12T18:02:43.988Z,48.91
2019-05-12T18:05:15.594Z,47.41
2019-05-12T18:07:44.725Z,47.95
2019-05-12T18:10:13.834Z,48.12
2019-05-12T18:12:45.215Z,47.86
2019-05-12T18:15:15.010Z,47.54
2019-05-12T18:17:45.268Z,48.01
2019-05-12T18:20:14.615Z,48.55
2019-05-12T18:22:44.928Z,48.93
2019-05-12T18:25:14.584Z,51.26
2019-05-12T18:27:50.362Z,52.61
2019-05-12T18:30:18.627Z,51.83
2019-05-12T18:32:44.851Z,53.08
2019-05-12T18:35:13.871Z,53.63
2019-05-12T18:37:42.451Z,53.84
2019-05-12T18:40:14.572Z,53.89
2019-05-12T18:42:42.650Z,53.82
2019-05-12T18:45:17.371Z,53.33
2019-05-12T18:47:44.012Z,52.74
2019-05-12T18:50:14.082Z,52.62
2019-05-12T18:52:45.592Z,52.78
2019-05-12T18:55:13.360Z,48.76
2019-05-12T18:57:46.310Z,49.77
2019-05-12T19:00:19.757Z,52.58
2019-05-12T19:02:51.087Z,53.41
2019-05-12T19:05:30.035Z,54.52
2019-05-12T19:07:49.087Z,54.70
2019-05-12T19:10:17.683Z,54.27
2019-05-12T19:12:46.241Z,54.31
2019-05-12T19:15:19.513Z,54.18
2019-05-12T19:17:45.962Z,54.11
2019-05-12T19:20:14.989Z,54.26
2019-05-12T19:22:49.631Z,54.58
2019-05-12T19:25:19.347Z,53.88
2019-05-12T19:27:49.958Z,54.05
2019-05-12T19:30:19.346Z,54.31
2019-05-12T19:32:47.637Z,54.09
2019-05-12T19:35:20.350Z,54.73
2019-05-12T19:37:46.418Z,54.53
2019-05-12T19:40:17.636Z,54.49
2019-05-12T19:42:45.373Z,54.47
2019-05-12T19:45:21.128Z,53.26
2019-05-12T19:47:44.735Z,53.42
2019-05-12T19:50:18.163Z,53.29
2019-05-12T19:52:44.369Z,53.73
2019-05-12T19:55:13.993Z,49.23
2019-05-12T19:57:44.254Z,49.61
2019-05-12T20:00:14.061Z,49.48
2019-05-12T20:02:42.649Z,51.92
2019-05-12T20:05:16.722Z,53.06
2019-05-12T20:07:44.405Z,53.91
2019-05-12T20:10:13.868Z,53.90
2019-05-12T20:12:43.670Z,54.21
2019-05-12T20:15:15.075Z,54.59
2019-05-12T20:17:44.717Z,54.12
2019-05-12T20:20:17.731Z,54.35
2019-05-12T20:22:44.564Z,55.05
2019-05-12T20:25:14.593Z,55.45
2019-05-12T20:27:44.538Z,55.54
2019-05-12T20:30:20.832Z,56.12
2019-05-12T20:32:46.369Z,50.69
2019-05-12T20:35:15.105Z,50.87
2019-05-12T20:37:52.641Z,50.58
2019-05-12T20:40:14.177Z,50.34
2019-05-12T20:43:05.330Z,50.24
2019-05-12T20:45:13.966Z,50.44
2019-05-12T20:47:45.179Z,50.94
2019-05-12T20:50:14.887Z,51.36
2019-05-12T20:52:46.439Z,52.53
2019-05-12T20:55:14.521Z,51.63
2019-05-12T20:57:51.824Z,51.08
2019-05-12T21:00:14.264Z,50.01
2019-05-12T21:02:44.276Z,49.94
2019-05-12T21:05:19.189Z,50.26
2019-05-12T21:07:44.809Z,50.23
2019-05-12T21:10:14.967Z,51.01
2019-05-12T21:12:49.920Z,50.26
2019-05-12T21:15:20.180Z,50.20
2019-05-12T21:17:52.035Z,50.68
2019-05-12T21:20:16.766Z,50.64
2019-05-12T21:22:45.553Z,51.07
2019-05-12T21:25:14.142Z,52.45
2019-05-12T21:27:47.368Z,53.50
2019-05-12T21:30:15.216Z,54.46
2019-05-12T21:32:47.171Z,51.76
2019-05-12T21:35:22.018Z,51.99
2019-05-12T21:37:48.320Z,53.78
2019-05-12T21:40:15.968Z,54.92
2019-05-12T21:42:44.866Z,55.62
2019-05-12T21:45:14.560Z,55.21
2019-05-12T21:47:44.431Z,55.94
2019-05-12T21:50:14.002Z,55.95
2019-05-12T21:52:44.642Z,56.27
2019-05-12T21:55:21.203Z,56.29
2019-05-12T21:57:43.859Z,56.85
2019-05-12T22:00:34.119Z,56.15
2019-05-12T22:03:07.388Z,56.36
2019-05-12T22:05:48.130Z,56.40
2019-05-12T22:08:06.510Z,55.98
2019-05-12T22:10:34.813Z,55.36
2019-05-12T22:13:07.382Z,58.80
2019-05-12T22:15:33.864Z,59.51
2019-05-12T22:18:04.831Z,60.02
2019-05-12T22:20:34.184Z,58.56
2019-05-12T22:23:09.591Z,59.04
2019-05-12T22:25:34.513Z,59.73
2019-05-12T22:28:05.432Z,60.16
2019-05-12T22:30:34.978Z,59.91
2019-05-12T22:33:08.313Z,59.43
2019-05-12T22:35:34.026Z,58.09
2019-05-12T22:38:09.409Z,58.48
2019-05-12T22:40:32.700Z,57.76
2019-05-12T22:43:03.797Z,58.23
2019-05-12T22:45:36.152Z,57.36
2019-05-12T22:48:04.114Z,57.46
2019-05-12T22:50:33.115Z,57.41
2019-05-12T22:53:04.091Z,57.66
2019-05-12T22:55:35.067Z,57.48
2019-05-12T22:58:02.595Z,57.95
2019-05-12T23:00:33.895Z,58.44
2019-05-12T23:03:08.604Z,57.85
2019-05-12T23:05:31.727Z,57.59
2019-05-12T23:08:05.786Z,57.80
2019-05-12T23:10:30.397Z,57.95
2019-05-12T23:13:01.842Z,57.68
2019-05-12T23:15:29.232Z,57.95
2019-05-12T23:17:57.724Z,58.28
2019-05-12T23:20:30.996Z,59.40
2019-05-12T23:22:56.470Z,59.64
2019-05-12T23:25:24.935Z,59.46
2019-05-12T23:27:54.233Z,58.41
2019-05-12T23:30:24.370Z,59.19
2019-05-12T23:32:53.157Z,60.64
2019-05-12T23:35:21.735Z,61.33
2019-05-12T23:37:50.194Z,61.68
2019-05-12T23:40:18.780Z,62.24
2019-05-12T23:42:47.336Z,61.01
2019-05-12T23:45:15.927Z,61.08
2019-05-12T23:47:44.417Z,61.17
2019-05-12T23:50:14.286Z,61.02
2019-05-12T23:52:44.012Z,60.43
2019-05-12T23:55:13.810Z,61.74
2019-05-12T23:57:44.335Z,62.67
